createdAt,value
2017-09-22T00:00:47.849Z,72.63
2017-09-22T00:03:15.294Z,73.04
2017-09-22T00:05:42.784Z,72.87
2017-09-22T00:08:10.229Z,72.70
2017-09-22T00:10:37.709Z,72.66
2017-09-22T00:13:05.176Z,72.83
2017-09-22T00:15:33.000Z,73.39
2017-09-22T00:18:00.457Z,73.78
2017-09-22T00:20:27.916Z,73.48
2017-09-22T00:22:55.400Z,73.54
2017-09-22T00:25:22.903Z,74.00
2017-09-22T00:27:50.386Z,73.80
2017-09-22T00:30:17.885Z,73.70
2017-09-22T00:32:45.429Z,73.99
2017-09-22T00:35:12.915Z,73.72
2017-09-22T00:37:40.384Z,73.64
2017-09-22T00:40:07.873Z,73.55
2017-09-22T00:42:35.472Z,73.57
2017-09-22T00:45:02.915Z,73.54
2017-09-22T00:47:30.403Z,73.23
2017-09-22T00:49:57.885Z,73.20
2017-09-22T00:52:25.346Z,73.20
2017-09-22T00:54:52.837Z,73.75
2017-09-22T00:57:20.281Z,74.01
2017-09-22T00:59:47.759Z,74.24
2017-09-22T01:02:15.205Z,74.80
2017-09-22T01:04:42.724Z,75.06
2017-09-22T01:07:10.253Z,74.82
2017-09-22T01:09:37.746Z,74.46
2017-09-22T01:12:05.229Z,74.61
2017-09-22T01:14:32.672Z,74.46
2017-09-22T01:17:00.146Z,74.12
2017-09-22T01:19:27.604Z,74.12
2017-09-22T01:21:55.084Z,74.40
2017-09-22T01:24:22.551Z,74.60
2017-09-22T01:26:50.024Z,74.21
2017-09-22T01:29:17.483Z,73.96
2017-09-22T01:31:44.969Z,73.66
2017-09-22T01:34:12.481Z,73.75
2017-09-22T01:36:39.942Z,73.67
2017-09-22T01:39:07.420Z,73.18
2017-09-22T01:41:34.896Z,72.94
2017-09-22T01:44:02.380Z,73.06
2017-09-22T01:46:29.855Z,73.05
2017-09-22T01:48:57.348Z,73.22
2017-09-22T01:51:24.821Z,73.40
2017-09-22T01:53:52.281Z,73.49
2017-09-22T01:56:19.749Z,73.23
2017-09-22T01:58:47.229Z,73.21
2017-09-22T02:01:14.690Z,73.26
2017-09-22T02:03:42.174Z,73.23
2017-09-22T02:06:09.645Z,73.03
2017-09-22T02:08:37.125Z,72.91
2017-09-22T02:11:04.586Z,73.04
2017-09-22T02:13:32.083Z,73.02
2017-09-22T02:15:59.575Z,73.02
2017-09-22T02:18:27.017Z,73.09
2017-09-22T02:20:54.506Z,72.78
2017-09-22T02:23:21.973Z,72.72
2017-09-22T02:25:49.450Z,72.59
2017-09-22T02:28:16.897Z,72.71
2017-09-22T02:30:44.365Z,72.78
2017-09-22T02:33:11.809Z,73.27
2017-09-22T02:35:39.310Z,73.24
2017-09-22T02:38:06.819Z,73.39
2017-09-22T02:40:34.285Z,73.21
2017-09-22T02:43:01.770Z,73.37
2017-09-22T02:45:29.237Z,73.44
2017-09-22T02:47:56.697Z,73.61
2017-09-22T02:50:24.165Z,73.54
2017-09-22T02:52:51.656Z,73.69
2017-09-22T02:55:19.165Z,73.59
2017-09-22T02:57:46.630Z,73.33
2017-09-22T03:00:14.109Z,73.35
2017-09-22T03:02:41.584Z,73.59
2017-09-22T03:05:09.067Z,73.69
2017-09-22T03:07:36.513Z,73.55
2017-09-22T03:10:03.992Z,73.35
2017-09-22T03:12:31.463Z,73.52
2017-09-22T03:14:58.951Z,73.49
2017-09-22T03:17:26.392Z,73.36
2017-09-22T03:19:54.207Z,73.07
2017-09-22T03:22:21.663Z,73.06
2017-09-22T03:24:49.116Z,73.21
2017-09-22T03:27:16.620Z,73.35
2017-09-22T03:29:44.082Z,73.46
2017-09-22T03:32:11.562Z,73.62
2017-09-22T03:34:39.025Z,73.47
2017-09-22T03:37:06.509Z,73.35
2017-09-22T03:39:33.968Z,73.24
2017-09-22T03:42:01.469Z,73.62
2017-09-22T03:44:28.929Z,73.63
2017-09-22T03:46:56.396Z,73.93
2017-09-22T03:49:23.868Z,74.17
2017-09-22T03:51:51.333Z,73.97
2017-09-22T03:54:18.841Z,74.06
2017-09-22T03:56:46.290Z,74.08
2017-09-22T03:59:13.761Z,74.49
2017-09-22T04:01:42.125Z,74.40
2017-09-22T04:04:09.598Z,74.25
2017-09-22T04:06:37.057Z,74.22
2017-09-22T04:09:04.526Z,74.44
2017-09-22T04:11:32.041Z,74.63
2017-09-22T04:13:59.505Z,74.90
2017-09-22T04:16:26.996Z,74.60
2017-09-22T04:18:54.444Z,74.29
2017-09-22T04:21:21.922Z,74.16
2017-09-22T04:23:49.377Z,74.29
2017-09-22T04:26:16.864Z,74.12
2017-09-22T04:28:44.325Z,74.18
2017-09-22T04:31:11.810Z,74.46
2017-09-22T04:33:39.266Z,74.48
2017-09-22T04:36:06.753Z,74.51
2017-09-22T04:38:34.212Z,74.19
2017-09-22T04:41:01.678Z,73.85
2017-09-22T04:43:29.159Z,73.72
2017-09-22T04:45:56.613Z,73.61
2017-09-22T04:48:24.095Z,73.60
2017-09-22T04:50:51.545Z,73.67
2017-09-22T04:53:19.120Z,73.96
2017-09-22T04:55:46.598Z,74.17
2017-09-22T04:58:14.071Z,74.00
2017-09-22T05:00:41.519Z,73.89
2017-09-22T05:03:08.959Z,73.93
2017-09-22T05:05:36.451Z,73.97
2017-09-22T05:08:03.910Z,74.16
2017-09-22T05:10:31.394Z,74.50
2017-09-22T05:12:58.860Z,74.61
2017-09-22T05:15:26.355Z,74.18
2017-09-22T05:17:53.807Z,74.01
2017-09-22T05:20:21.282Z,73.75
2017-09-22T05:22:48.725Z,73.90
2017-09-22T05:25:16.217Z,74.15
2017-09-22T05:27:43.710Z,74.15
2017-09-22T05:30:11.234Z,74.14
2017-09-22T05:32:38.706Z,73.76
2017-09-22T05:35:06.160Z,73.76
2017-09-22T05:37:33.649Z,73.62
2017-09-22T05:40:01.097Z,73.84
2017-09-22T05:42:28.594Z,73.96
2017-09-22T05:44:56.058Z,73.85
2017-09-22T05:47:23.591Z,73.74
2017-09-22T05:49:51.036Z,73.82
2017-09-22T05:52:18.524Z,73.83
2017-09-22T05:54:46.007Z,73.74
2017-09-22T05:57:13.487Z,73.02
2017-09-22T05:59:41.011Z,73.21
2017-09-22T06:02:08.479Z,73.82
2017-09-22T06:04:36.015Z,74.25
2017-09-22T06:07:03.491Z,73.76
2017-09-22T06:09:30.964Z,73.91
2017-09-22T06:11:59.330Z,74.36
2017-09-22T06:14:26.814Z,74.71
2017-09-22T06:16:54.265Z,75.12
2017-09-22T06:19:21.794Z,75.50
2017-09-22T06:21:49.261Z,75.79
2017-09-22T06:24:16.737Z,75.51
2017-09-22T06:26:44.221Z,75.04
2017-09-22T06:29:11.679Z,74.70
2017-09-22T06:31:39.171Z,75.39
2017-09-22T06:34:07.074Z,75.23
2017-09-22T06:36:34.568Z,75.10
2017-09-22T06:39:02.029Z,75.39
2017-09-22T06:41:29.521Z,75.18
2017-09-22T06:43:57.096Z,74.35
2017-09-22T06:46:24.591Z,74.05
2017-09-22T06:48:52.149Z,73.79
2017-09-22T06:51:19.618Z,73.80
2017-09-22T06:53:47.144Z,73.71
2017-09-22T06:56:14.597Z,73.34
2017-09-22T06:58:42.129Z,73.15
2017-09-22T07:01:09.578Z,72.65
2017-09-22T07:03:37.154Z,72.49
2017-09-22T07:06:04.660Z,72.58
2017-09-22T07:08:32.200Z,72.35
2017-09-22T07:10:59.705Z,71.55
2017-09-22T07:13:27.174Z,71.38
2017-09-22T07:15:54.650Z,71.26
2017-09-22T07:18:22.118Z,71.30
2017-09-22T07:20:49.620Z,71.30
2017-09-22T07:23:17.117Z,71.09
2017-09-22T07:25:44.617Z,71.38
2017-09-22T07:28:12.119Z,70.84
2017-09-22T07:30:39.671Z,70.79
2017-09-22T07:33:07.229Z,70.53
2017-09-22T07:35:34.726Z,70.22
2017-09-22T07:38:02.226Z,70.14
2017-09-22T07:40:29.742Z,70.06
2017-09-22T07:42:57.228Z,70.06
2017-09-22T07:45:24.730Z,69.67
2017-09-22T07:47:53.276Z,69.70
2017-09-22T07:50:20.846Z,69.56
2017-09-22T07:52:48.438Z,69.24
2017-09-22T07:55:15.913Z,69.55
2017-09-22T07:57:43.414Z,69.50
2017-09-22T08:00:10.912Z,68.88
2017-09-22T08:02:38.382Z,68.53
2017-09-22T08:05:05.860Z,68.26
2017-09-22T08:07:33.337Z,68.60
2017-09-22T08:10:00.844Z,68.48
2017-09-22T08:12:28.318Z,68.53
2017-09-22T08:14:55.808Z,68.57
2017-09-22T08:17:23.265Z,68.65
2017-09-22T08:19:50.846Z,68.71
2017-09-22T08:22:18.337Z,68.76
2017-09-22T08:24:45.870Z,69.02
2017-09-22T08:27:13.387Z,68.87
2017-09-22T08:29:40.845Z,68.74
2017-09-22T08:32:08.335Z,68.98
2017-09-22T08:34:35.820Z,69.04
2017-09-22T08:37:03.318Z,68.52
2017-09-22T08:39:30.781Z,68.13
2017-09-22T08:41:58.269Z,68.13
2017-09-22T08:44:25.733Z,68.28
2017-09-22T08:46:53.210Z,67.55
2017-09-22T08:49:20.790Z,67.81
2017-09-22T08:51:48.252Z,67.62
2017-09-22T08:54:15.762Z,66.96
2017-09-22T08:56:43.253Z,66.47
2017-09-22T08:59:10.764Z,66.18
2017-09-22T09:01:38.256Z,66.15
2017-09-22T09:04:05.750Z,65.79
2017-09-22T09:06:33.251Z,65.87
2017-09-22T09:09:00.747Z,65.60
2017-09-22T09:11:28.243Z,65.24
2017-09-22T09:13:55.773Z,64.95
2017-09-22T09:16:23.237Z,64.61
2017-09-22T09:18:50.708Z,63.74
2017-09-22T09:21:18.246Z,63.60
2017-09-22T09:23:45.737Z,63.51
2017-09-22T09:26:13.274Z,63.29
2017-09-22T09:28:40.775Z,62.87
2017-09-22T09:31:08.294Z,63.27
2017-09-22T09:33:35.763Z,62.17
2017-09-22T09:36:03.764Z,62.04
2017-09-22T09:38:31.260Z,61.67
2017-09-22T09:40:58.727Z,61.34
2017-09-22T09:43:26.281Z,60.71
2017-09-22T09:45:53.788Z,60.00
2017-09-22T09:48:21.330Z,59.97
2017-09-22T09:50:48.837Z,59.52
2017-09-22T09:53:16.343Z,59.19
2017-09-22T09:55:43.849Z,58.35
2017-09-22T09:58:11.342Z,58.23
2017-09-22T10:00:38.806Z,57.59
2017-09-22T10:03:06.293Z,56.20
2017-09-22T10:05:33.762Z,55.92
2017-09-22T10:08:01.252Z,55.99
2017-09-22T10:10:28.745Z,56.55
2017-09-22T10:12:56.194Z,56.03
2017-09-22T10:15:23.688Z,56.17
2017-09-22T10:17:51.158Z,56.07
2017-09-22T10:20:18.644Z,55.41
2017-09-22T10:22:46.128Z,55.88
2017-09-22T10:25:13.621Z,56.52
2017-09-22T10:27:41.838Z,56.71
2017-09-22T10:30:09.316Z,55.48
2017-09-22T10:32:36.813Z,55.57
2017-09-22T10:35:04.290Z,55.64
2017-09-22T10:37:31.784Z,55.87
2017-09-22T10:39:59.285Z,55.91
2017-09-22T10:42:26.774Z,54.94
2017-09-22T10:44:54.233Z,55.43
2017-09-22T10:47:21.765Z,55.35
2017-09-22T10:49:49.253Z,54.60
2017-09-22T10:52:17.223Z,54.39
2017-09-22T10:54:44.693Z,54.03
2017-09-22T10:57:12.160Z,53.64
2017-09-22T10:59:40.467Z,54.03
2017-09-22T11:02:07.952Z,54.27
2017-09-22T11:04:35.465Z,53.78
2017-09-22T11:07:02.951Z,53.40
2017-09-22T11:09:30.428Z,53.63
2017-09-22T11:11:57.900Z,53.24
2017-09-22T11:14:25.418Z,53.35
2017-09-22T11:16:52.947Z,52.66
2017-09-22T11:19:20.433Z,52.58
2017-09-22T11:21:47.949Z,52.46
2017-09-22T11:24:15.402Z,52.24
2017-09-22T11:26:42.914Z,51.58
2017-09-22T11:29:10.382Z,50.67
2017-09-22T11:31:37.419Z,51.03
2017-09-22T11:34:04.334Z,51.43
2017-09-22T11:36:31.826Z,51.10
2017-09-22T11:38:59.314Z,51.14
2017-09-22T11:41:26.777Z,50.21
2017-09-22T11:43:54.265Z,50.04
2017-09-22T11:46:21.764Z,49.34
2017-09-22T11:48:49.268Z,48.82
2017-09-22T11:51:16.737Z,49.28
2017-09-22T11:53:44.245Z,47.36
2017-09-22T11:56:11.739Z,45.86
2017-09-22T11:58:39.200Z,46.18
2017-09-22T12:01:06.761Z,45.50
2017-09-22T12:03:34.213Z,44.79
2017-09-22T12:06:01.699Z,44.57
2017-09-22T12:08:29.179Z,44.04
2017-09-22T12:10:56.676Z,42.58
2017-09-22T12:13:24.164Z,43.21
2017-09-22T12:15:51.613Z,43.46
2017-09-22T12:18:19.165Z,43.16
2017-09-22T12:20:46.622Z,42.22
2017-09-22T12:23:14.141Z,42.52
2017-09-22T12:25:41.612Z,42.87
2017-09-22T12:28:09.121Z,43.05
2017-09-22T12:30:36.638Z,42.87
2017-09-22T12:33:04.099Z,41.75
2017-09-22T12:35:31.604Z,42.53
2017-09-22T12:37:59.127Z,42.21
2017-09-22T12:40:26.613Z,41.97
2017-09-22T12:42:54.073Z,42.33
2017-09-22T12:45:21.570Z,41.81
2017-09-22T12:47:49.065Z,42.21
2017-09-22T12:50:16.522Z,42.18
2017-09-22T12:52:44.009Z,42.44
2017-09-22T12:55:11.485Z,42.81
2017-09-22T12:57:39.069Z,43.23
2017-09-22T13:00:06.515Z,42.00
2017-09-22T13:02:33.993Z,41.25
2017-09-22T13:05:01.489Z,41.20
2017-09-22T13:07:29.057Z,41.44
2017-09-22T13:09:56.864Z,41.26
2017-09-22T13:12:24.330Z,41.35
2017-09-22T13:14:51.835Z,41.29
2017-09-22T13:17:19.363Z,41.02
2017-09-22T13:19:46.844Z,40.98
2017-09-22T13:22:14.309Z,40.82
2017-09-22T13:24:41.793Z,40.04
2017-09-22T13:27:09.257Z,40.45
2017-09-22T13:29:36.754Z,39.95
2017-09-22T13:32:04.276Z,40.15
2017-09-22T13:34:31.769Z,41.46
2017-09-22T13:36:59.230Z,41.82
2017-09-22T13:39:26.793Z,43.16
2017-09-22T13:41:54.275Z,42.90
2017-09-22T13:44:21.743Z,42.87
2017-09-22T13:46:49.255Z,43.08
2017-09-22T13:49:16.753Z,43.49
2017-09-22T13:51:44.245Z,44.15
2017-09-22T13:54:11.753Z,44.44
2017-09-22T13:56:39.260Z,44.30
2017-09-22T13:59:06.757Z,44.80
2017-09-22T14:01:34.238Z,44.75
2017-09-22T14:04:01.748Z,44.47
2017-09-22T14:06:29.214Z,44.49
2017-09-22T14:08:56.722Z,44.54
2017-09-22T14:11:24.182Z,44.84
2017-09-22T14:13:51.693Z,45.10
2017-09-22T14:16:19.228Z,45.04
2017-09-22T14:18:46.681Z,45.08
2017-09-22T14:21:14.194Z,45.11
2017-09-22T14:23:41.673Z,45.46
2017-09-22T14:26:09.175Z,45.65
2017-09-22T14:28:36.684Z,45.99
2017-09-22T14:31:04.197Z,46.29
2017-09-22T14:33:31.705Z,46.25
2017-09-22T14:35:59.225Z,46.42
2017-09-22T14:38:26.716Z,46.46
2017-09-22T14:40:54.206Z,46.50
2017-09-22T14:43:21.695Z,46.75
2017-09-22T14:45:49.184Z,46.75
2017-09-22T14:48:16.677Z,46.89
2017-09-22T14:50:44.202Z,46.74
2017-09-22T14:53:11.728Z,46.31
2017-09-22T14:55:39.201Z,45.53
2017-09-22T14:58:06.714Z,45.54
2017-09-22T15:00:34.190Z,45.08
2017-09-22T15:03:01.639Z,45.47
2017-09-22T15:05:29.151Z,45.58
2017-09-22T15:07:56.637Z,45.63
2017-09-22T15:10:24.133Z,45.20
2017-09-22T15:12:51.589Z,45.01
2017-09-22T15:15:19.170Z,44.87
2017-09-22T15:17:46.701Z,45.17
2017-09-22T15:20:14.236Z,45.40
2017-09-22T15:22:41.684Z,46.08
2017-09-22T15:25:09.186Z,46.30
2017-09-22T15:27:36.641Z,46.44
2017-09-22T15:30:04.136Z,46.15
2017-09-22T15:32:31.671Z,46.35
2017-09-22T15:34:59.133Z,46.32
2017-09-22T15:37:26.949Z,46.30
2017-09-22T15:39:54.441Z,47.26
2017-09-22T15:42:22.104Z,47.95
2017-09-22T15:44:49.586Z,48.15
2017-09-22T15:47:17.095Z,47.98
2017-09-22T15:49:44.630Z,48.01
2017-09-22T15:52:12.150Z,48.52
2017-09-22T15:54:39.607Z,48.29
2017-09-22T15:57:07.083Z,48.69
2017-09-22T15:59:34.580Z,49.09
2017-09-22T16:02:02.043Z,49.32
2017-09-22T16:04:29.550Z,49.74
2017-09-22T16:06:57.002Z,47.78
2017-09-22T16:09:24.457Z,47.09
2017-09-22T16:11:51.962Z,46.91
2017-09-22T16:14:19.599Z,46.40
2017-09-22T16:16:47.076Z,46.79
2017-09-22T16:19:14.744Z,47.07
2017-09-22T16:21:42.216Z,47.36
2017-09-22T16:24:09.684Z,47.54
2017-09-22T16:26:37.858Z,47.70
2017-09-22T16:29:05.318Z,47.83
2017-09-22T16:31:32.806Z,47.93
2017-09-22T16:34:00.283Z,48.34
2017-09-22T16:36:27.778Z,48.55
2017-09-22T16:38:55.236Z,48.74
2017-09-22T16:41:22.716Z,48.64
2017-09-22T16:43:50.233Z,48.96
2017-09-22T16:46:17.995Z,49.28
2017-09-22T16:48:45.460Z,49.21
2017-09-22T16:51:13.126Z,49.30
2017-09-22T16:53:40.641Z,49.42
2017-09-22T16:56:08.109Z,49.81
2017-09-22T16:58:35.782Z,50.31
2017-09-22T17:01:03.268Z,50.61
2017-09-22T17:03:30.789Z,50.95
2017-09-22T17:05:58.248Z,51.27
2017-09-22T17:08:25.849Z,51.48
2017-09-22T17:10:53.331Z,51.66
2017-09-22T17:13:20.825Z,51.77
2017-09-22T17:15:48.329Z,51.90
2017-09-22T17:18:15.800Z,52.43
2017-09-22T17:20:43.271Z,52.46
2017-09-22T17:23:10.765Z,52.63
2017-09-22T17:25:38.279Z,52.91
2017-09-22T17:28:05.741Z,53.18
2017-09-22T17:30:33.226Z,53.57
2017-09-22T17:33:00.698Z,54.23
2017-09-22T17:35:28.217Z,56.05
2017-09-22T17:37:55.691Z,58.13
2017-09-22T17:40:23.206Z,59.44
2017-09-22T17:42:50.698Z,59.74
2017-09-22T17:45:18.189Z,60.47
2017-09-22T17:47:45.638Z,60.01
2017-09-22T17:50:13.187Z,60.47
2017-09-22T17:52:40.649Z,60.77
2017-09-22T17:55:08.190Z,60.80
2017-09-22T17:57:35.693Z,61.17
2017-09-22T18:00:03.174Z,61.15
2017-09-22T18:02:30.650Z,61.68
2017-09-22T18:04:58.113Z,61.37
2017-09-22T18:07:25.606Z,60.64
2017-09-22T18:09:53.168Z,60.30
2017-09-22T18:12:20.617Z,59.78
2017-09-22T18:14:48.105Z,59.81
2017-09-22T18:17:15.586Z,59.92
2017-09-22T18:19:43.107Z,60.11
2017-09-22T18:22:10.636Z,60.81
2017-09-22T18:24:38.149Z,61.15
2017-09-22T18:27:05.601Z,61.64
2017-09-22T18:29:33.093Z,61.90
2017-09-22T18:32:00.548Z,61.92
2017-09-22T18:34:28.221Z,62.16
2017-09-22T18:36:55.695Z,62.51
2017-09-22T18:39:23.161Z,62.99
2017-09-22T18:41:50.655Z,63.58
2017-09-22T18:44:18.168Z,64.14
2017-09-22T18:46:45.674Z,64.46
2017-09-22T18:49:13.154Z,64.59
2017-09-22T18:51:40.654Z,64.83
2017-09-22T18:54:08.110Z,64.91
2017-09-22T18:56:35.691Z,65.34
2017-09-22T18:59:03.995Z,65.61
2017-09-22T19:01:31.474Z,65.79
2017-09-22T19:03:58.978Z,65.80
2017-09-22T19:06:26.459Z,65.42
2017-09-22T19:08:53.962Z,65.63
2017-09-22T19:11:21.429Z,66.19
2017-09-22T19:13:49.000Z,66.31
2017-09-22T19:16:16.504Z,66.15
2017-09-22T19:18:43.991Z,66.59
2017-09-22T19:21:11.538Z,67.00
2017-09-22T19:23:39.021Z,67.82
2017-09-22T19:26:06.521Z,68.20
2017-09-22T19:28:34.020Z,68.70
2017-09-22T19:31:01.490Z,68.84
2017-09-22T19:33:29.899Z,69.77
2017-09-22T19:35:57.420Z,70.06
2017-09-22T19:38:24.910Z,70.23
2017-09-22T19:40:52.405Z,69.94
2017-09-22T19:43:19.862Z,70.33
2017-09-22T19:45:47.339Z,70.70
2017-09-22T19:48:14.826Z,70.53
2017-09-22T19:50:42.302Z,70.79
2017-09-22T19:53:09.816Z,70.91
2017-09-22T19:55:37.292Z,70.89
2017-09-22T19:58:04.767Z,70.87
2017-09-22T20:00:32.234Z,71.04
2017-09-22T20:02:59.733Z,71.07
2017-09-22T20:05:27.218Z,70.73
2017-09-22T20:07:54.767Z,71.11
2017-09-22T20:10:22.239Z,70.97
2017-09-22T20:12:49.738Z,70.94
2017-09-22T20:15:17.221Z,70.85
2017-09-22T20:17:44.702Z,70.79
2017-09-22T20:20:12.172Z,71.31
2017-09-22T20:22:39.670Z,71.41
2017-09-22T20:25:07.144Z,71.36
2017-09-22T20:27:34.634Z,71.52
2017-09-22T20:30:02.133Z,71.66
2017-09-22T20:32:29.605Z,71.95
2017-09-22T20:34:57.117Z,71.99
2017-09-22T20:37:24.594Z,71.65
2017-09-22T20:39:52.084Z,71.97
2017-09-22T20:42:19.558Z,72.19
2017-09-22T20:44:47.056Z,72.50
2017-09-22T20:47:14.523Z,72.41
2017-09-22T20:49:42.020Z,72.35
2017-09-22T20:52:09.506Z,72.30
2017-09-22T20:54:37.036Z,72.33
2017-09-22T20:57:04.540Z,72.76
2017-09-22T20:59:32.041Z,73.12
2017-09-22T21:01:59.562Z,73.16
2017-09-22T21:04:27.026Z,73.36
2017-09-22T21:06:54.522Z,73.52
2017-09-22T21:09:21.977Z,73.65
2017-09-22T21:11:49.482Z,73.94
2017-09-22T21:14:16.939Z,73.83
2017-09-22T21:16:44.430Z,73.65
2017-09-22T21:19:11.927Z,73.61
2017-09-22T21:21:39.411Z,73.36
2017-09-22T21:24:06.899Z,73.30
2017-09-22T21:26:34.369Z,73.57
2017-09-22T21:29:01.882Z,73.60
2017-09-22T21:31:29.352Z,73.54
2017-09-22T21:33:56.842Z,73.69
2017-09-22T21:36:24.337Z,73.73
2017-09-22T21:38:51.855Z,73.90
2017-09-22T21:41:19.416Z,73.77
2017-09-22T21:43:46.968Z,73.85
2017-09-22T21:46:14.462Z,74.12
2017-09-22T21:48:42.005Z,74.16
2017-09-22T21:51:09.521Z,73.83
2017-09-22T21:53:36.978Z,73.78
2017-09-22T21:56:04.465Z,73.53
2017-09-22T21:58:31.983Z,73.66
2017-09-22T22:00:59.518Z,73.97
2017-09-22T22:03:32.455Z,74.67
2017-09-22T22:06:05.660Z,74.74
2017-09-22T22:08:33.163Z,74.38
2017-09-22T22:11:00.642Z,74.15
2017-09-22T22:13:28.099Z,73.97
2017-09-22T22:15:55.720Z,74.17
2017-09-22T22:18:23.220Z,74.38
2017-09-22T22:20:50.734Z,74.40
2017-09-22T22:23:18.257Z,74.64
2017-09-22T22:25:45.853Z,74.72
2017-09-22T22:28:14.478Z,74.56
2017-09-22T22:30:41.941Z,74.60
2017-09-22T22:33:09.432Z,74.64
2017-09-22T22:35:36.893Z,74.71
2017-09-22T22:38:04.388Z,74.90
2017-09-22T22:40:31.865Z,74.73
2017-09-22T22:42:59.364Z,74.94
2017-09-22T22:45:26.863Z,75.27
2017-09-22T22:47:54.322Z,75.46
2017-09-22T22:50:21.822Z,75.40
2017-09-22T22:52:49.309Z,76.60
2017-09-22T22:55:16.815Z,76.52
2017-09-22T22:57:44.309Z,76.32
2017-09-22T23:00:11.810Z,76.29
2017-09-22T23:02:39.290Z,76.33
2017-09-22T23:05:06.770Z,76.26
2017-09-22T23:07:34.252Z,76.40
2017-09-22T23:10:01.770Z,76.55
2017-09-22T23:12:29.261Z,76.50
2017-09-22T23:14:56.706Z,76.91
2017-09-22T23:17:24.192Z,77.04
2017-09-22T23:19:51.648Z,76.75
2017-09-22T23:22:19.168Z,76.56
2017-09-22T23:24:47.121Z,76.77
2017-09-22T23:27:14.627Z,77.14
2017-09-22T23:29:42.116Z,77.24
2017-09-22T23:32:09.615Z,77.30
2017-09-22T23:34:37.069Z,77.30
2017-09-22T23:37:04.563Z,77.34
2017-09-22T23:39:32.117Z,77.03
2017-09-22T23:41:59.589Z,77.10
2017-09-22T23:44:27.096Z,77.39
2017-09-22T23:46:54.564Z,77.59
2017-09-22T23:49:22.081Z,77.39
2017-09-22T23:51:49.542Z,77.21
2017-09-22T23:54:17.040Z,76.71
2017-09-22T23:56:44.489Z,76.18
2017-09-22T23:59:11.993Z,76.12
